sensor_id;sensor_type;location;lat;lon;timestamp;pressure;altitude;pressure_sealevel;temperature;humidity
13124;BME280;6627;50.920;12.050;2023-03-13T00:01:18;98071.91;;;17.27;47.00
13124;BME280;6627;50.920;12.050;2023-03-13T00:03:47;97903.78;;;15.88;48.17
13124;BME280;6627;50.920;12.050;2023-03-13T00:06:16;98064.56;;;16.92;48.01
13124;BME280;6627;50.920;12.050;2023-03-13T00:08:43;98138.22;;;17.78;46.66
13124;BME280;6627;50.920;12.050;2023-03-13T00:11:13;98097.47;;;17.34;47.42
13124;BME280;6627;50.920;12.050;2023-03-13T00:13:41;98054.41;;;17.31;46.16
13124;BME280;6627;50.920;12.050;2023-03-13T00:16:11;98116.75;;;17.61;46.08
13124;BME280;6627;50.920;12.050;2023-03-13T00:18:44;97967.16;;;16.68;46.60
13124;BME280;6627;50.920;12.050;2023-03-13T00:21:16;98075.47;;;17.50;46.30
13124;BME280;6627;50.920;12.050;2023-03-13T00:23:45;98103.06;;;17.80;45.66
13124;BME280;6627;50.920;12.050;2023-03-13T00:26:16;97923.44;;;16.29;47.62
13124;BME280;6627;50.920;12.050;2023-03-13T00:28:45;98005.63;;;16.75;47.65
13124;BME280;6627;50.920;12.050;2023-03-13T00:31:15;98037.56;;;17.10;47.01
13124;BME280;6627;50.920;12.050;2023-03-13T00:33:44;98025.78;;;17.06;47.05
13124;BME280;6627;50.920;12.050;2023-03-13T00:36:16;97918.69;;;15.91;48.73
13124;BME280;6627;50.920;12.050;2023-03-13T00:38:44;98080.84;;;17.24;47.12
13124;BME280;6627;50.920;12.050;2023-03-13T00:41:13;97922.31;;;16.14;48.28
13124;BME280;6627;50.920;12.050;2023-03-13T00:43:42;97914.44;;;15.94;48.76
13124;BME280;6627;50.920;12.050;2023-03-13T00:46:12;98010.44;;;16.82;47.35
13124;BME280;6627;50.920;12.050;2023-03-13T00:48:40;97930.69;;;16.41;47.18
13124;BME280;6627;50.920;12.050;2023-03-13T00:51:07;98002.00;;;16.90;47.06
13124;BME280;6627;50.920;12.050;2023-03-13T00:53:36;97987.28;;;16.60;47.73
13124;BME280;6627;50.920;12.050;2023-03-13T00:56:07;98047.50;;;17.18;47.35
13124;BME280;6627;50.920;12.050;2023-03-13T00:58:37;98110.19;;;17.65;46.96
13124;BME280;6627;50.920;12.050;2023-03-13T01:01:10;98051.94;;;17.26;47.04
13124;BME280;6627;50.920;12.050;2023-03-13T01:03:38;98199.75;;;17.65;46.62
13124;BME280;6627;50.920;12.050;2023-03-13T01:06:09;97954.16;;;16.81;47.16
13124;BME280;6627;50.920;12.050;2023-03-13T01:08:38;97944.22;;;16.53;47.63
13124;BME280;6627;50.920;12.050;2023-03-13T01:11:08;98001.00;;;16.79;47.51
13124;BME280;6627;50.920;12.050;2023-03-13T01:13:36;97972.50;;;16.61;47.63
13124;BME280;6627;50.920;12.050;2023-03-13T01:16:07;97971.34;;;16.62;48.04
13124;BME280;6627;50.920;12.050;2023-03-13T01:18:37;97997.94;;;16.46;49.13
13124;BME280;6627;50.920;12.050;2023-03-13T01:21:05;97961.22;;;16.27;49.28
13124;BME280;6627;50.920;12.050;2023-03-13T01:23:33;97995.16;;;16.61;49.15
13124;BME280;6627;50.920;12.050;2023-03-13T01:26:04;97853.47;;;15.70;49.29
13124;BME280;6627;50.920;12.050;2023-03-13T01:28:33;97864.84;;;16.88;45.93
13124;BME280;6627;50.920;12.050;2023-03-13T01:31:10;97876.22;;;15.94;49.08
13124;BME280;6627;50.920;12.050;2023-03-13T01:33:37;97895.06;;;16.18;48.49
13124;BME280;6627;50.920;12.050;2023-03-13T01:36:06;97864.78;;;15.88;49.26
13124;BME280;6627;50.920;12.050;2023-03-13T01:38:34;97958.97;;;16.49;49.11
13124;BME280;6627;50.920;12.050;2023-03-13T01:41:03;97995.66;;;16.86;48.68
13124;BME280;6627;50.920;12.050;2023-03-13T01:43:34;97974.44;;;16.60;48.87
13124;BME280;6627;50.920;12.050;2023-03-13T01:46:14;97872.78;;;15.97;49.20
13124;BME280;6627;50.920;12.050;2023-03-13T01:48:49;97933.91;;;16.08;50.35
13124;BME280;6627;50.920;12.050;2023-03-13T01:51:23;97995.25;;;16.84;49.05
13124;BME280;6627;50.920;12.050;2023-03-13T01:54:00;97831.81;;;15.77;49.35
13124;BME280;6627;50.920;12.050;2023-03-13T01:56:38;97949.75;;;16.57;48.70
13124;BME280;6627;50.920;12.050;2023-03-13T01:59:10;97928.06;;;16.29;49.26
13124;BME280;6627;50.920;12.050;2023-03-13T02:01:40;97925.41;;;16.13;49.57
13124;BME280;6627;50.920;12.050;2023-03-13T02:04:08;97902.41;;;16.14;49.30
13124;BME280;6627;50.920;12.050;2023-03-13T02:06:41;97820.06;;;15.42;50.33
13124;BME280;6627;50.920;12.050;2023-03-13T02:09:14;97824.91;;;15.32;51.39
13124;BME280;6627;50.920;12.050;2023-03-13T02:11:49;97863.25;;;15.39;52.32
13124;BME280;6627;50.920;12.050;2023-03-13T02:14:21;97998.50;;;16.35;50.38
13124;BME280;6627;50.920;12.050;2023-03-13T02:16:50;97903.19;;;15.79;50.59
13124;BME280;6627;50.920;12.050;2023-03-13T02:19:28;97965.56;;;16.67;49.22
13124;BME280;6627;50.920;12.050;2023-03-13T02:22:08;97950.88;;;16.36;50.01
13124;BME280;6627;50.920;12.050;2023-03-13T02:24:47;97900.16;;;16.00;50.24
13124;BME280;6627;50.920;12.050;2023-03-13T02:27:17;97955.78;;;16.47;50.34
13124;BME280;6627;50.920;12.050;2023-03-13T02:29:45;97910.69;;;16.37;49.35
13124;BME280;6627;50.920;12.050;2023-03-13T02:32:13;97874.03;;;15.83;50.64
13124;BME280;6627;50.920;12.050;2023-03-13T02:34:42;97861.25;;;15.87;50.30
13124;BME280;6627;50.920;12.050;2023-03-13T02:37:12;98010.81;;;17.42;48.48
13124;BME280;6627;50.920;12.050;2023-03-13T02:39:45;97888.47;;;16.38;49.28
13124;BME280;6627;50.920;12.050;2023-03-13T02:42:18;97916.00;;;16.49;49.43
13124;BME280;6627;50.920;12.050;2023-03-13T02:44:47;97842.31;;;15.95;49.99
13124;BME280;6627;50.920;12.050;2023-03-13T02:47:18;97897.69;;;16.30;49.75
13124;BME280;6627;50.920;12.050;2023-03-13T02:49:45;97940.78;;;17.18;47.49
13124;BME280;6627;50.920;12.050;2023-03-13T02:52:16;97959.75;;;17.30;47.72
13124;BME280;6627;50.920;12.050;2023-03-13T02:54:49;97939.09;;;17.10;48.16
13124;BME280;6627;50.920;12.050;2023-03-13T02:57:19;97927.28;;;17.06;48.08
13124;BME280;6627;50.920;12.050;2023-03-13T02:59:47;97814.97;;;16.33;48.01
13124;BME280;6627;50.920;12.050;2023-03-13T03:02:14;97912.59;;;16.95;48.70
13124;BME280;6627;50.920;12.050;2023-03-13T03:04:41;97891.28;;;17.04;47.76
13124;BME280;6627;50.920;12.050;2023-03-13T03:07:09;97870.19;;;17.04;47.15
13124;BME280;6627;50.920;12.050;2023-03-13T03:09:36;97923.75;;;17.28;47.65
13124;BME280;6627;50.920;12.050;2023-03-13T03:12:04;97891.41;;;17.11;47.60
13124;BME280;6627;50.920;12.050;2023-03-13T03:14:32;97915.63;;;17.09;48.55
13124;BME280;6627;50.920;12.050;2023-03-13T03:17:00;97799.31;;;16.30;49.13
13124;BME280;6627;50.920;12.050;2023-03-13T03:19:27;97800.47;;;16.10;50.20
13124;BME280;6627;50.920;12.050;2023-03-13T03:21:54;97995.19;;;17.88;47.81
13124;BME280;6627;50.920;12.050;2023-03-13T03:24:21;97862.19;;;16.92;48.62
13124;BME280;6627;50.920;12.050;2023-03-13T03:26:48;97810.66;;;16.52;49.06
13124;BME280;6627;50.920;12.050;2023-03-13T03:29:16;97760.72;;;16.12;49.59
13124;BME280;6627;50.920;12.050;2023-03-13T03:31:44;97972.31;;;17.77;48.07
13124;BME280;6627;50.920;12.050;2023-03-13T03:34:11;97791.16;;;16.53;49.16
13124;BME280;6627;50.920;12.050;2023-03-13T03:36:38;97954.88;;;17.66;48.20
13124;BME280;6627;50.920;12.050;2023-03-13T03:39:07;97830.75;;;16.82;48.42
13124;BME280;6627;50.920;12.050;2023-03-13T03:41:34;97778.53;;;16.26;49.62
13124;BME280;6627;50.920;12.050;2023-03-13T03:44:02;97898.16;;;17.17;49.32
13124;BME280;6627;50.920;12.050;2023-03-13T03:46:30;97828.81;;;16.83;48.81
13124;BME280;6627;50.920;12.050;2023-03-13T03:48:58;97885.84;;;17.30;48.95
13124;BME280;6627;50.920;12.050;2023-03-13T03:51:26;97840.06;;;17.01;48.98
13124;BME280;6627;50.920;12.050;2023-03-13T03:53:53;97840.81;;;17.24;48.30
13124;BME280;6627;50.920;12.050;2023-03-13T03:56:20;97889.81;;;17.82;47.18
13124;BME280;6627;50.920;12.050;2023-03-13T03:58:47;97896.34;;;17.74;47.51
13124;BME280;6627;50.920;12.050;2023-03-13T04:01:14;97862.19;;;17.42;47.99
13124;BME280;6627;50.920;12.050;2023-03-13T04:03:42;97787.31;;;17.04;47.93
13124;BME280;6627;50.920;12.050;2023-03-13T04:06:10;97880.16;;;17.92;47.30
13124;BME280;6627;50.920;12.050;2023-03-13T04:08:38;97813.84;;;17.49;46.88
13124;BME280;6627;50.920;12.050;2023-03-13T04:11:05;97872.44;;;17.98;47.18
13124;BME280;6627;50.920;12.050;2023-03-13T04:13:33;97851.66;;;17.70;47.92
13124;BME280;6627;50.920;12.050;2023-03-13T04:16:05;97841.38;;;17.86;47.04
13124;BME280;6627;50.920;12.050;2023-03-13T04:18:32;97889.19;;;18.23;46.32
13124;BME280;6627;50.920;12.050;2023-03-13T04:21:00;97821.63;;;18.04;45.78
13124;BME280;6627;50.920;12.050;2023-03-13T04:23:29;97721.16;;;17.21;47.11
13124;BME280;6627;50.920;12.050;2023-03-13T04:25:56;97815.56;;;18.21;45.97
13124;BME280;6627;50.920;12.050;2023-03-13T04:28:24;97718.91;;;17.30;47.43
13124;BME280;6627;50.920;12.050;2023-03-13T04:30:51;97723.31;;;17.08;48.08
13124;BME280;6627;50.920;12.050;2023-03-13T04:33:22;97803.44;;;17.88;47.83
13124;BME280;6627;50.920;12.050;2023-03-13T04:35:51;97661.69;;;16.65;49.00
13124;BME280;6627;50.920;12.050;2023-03-13T04:38:18;97708.63;;;17.20;48.33
13124;BME280;6627;50.920;12.050;2023-03-13T04:40:46;97695.75;;;16.94;49.09
13124;BME280;6627;50.920;12.050;2023-03-13T04:43:13;97720.34;;;17.21;49.07
13124;BME280;6627;50.920;12.050;2023-03-13T04:45:40;97820.63;;;17.85;48.81
13124;BME280;6627;50.920;12.050;2023-03-13T04:48:08;97661.72;;;16.69;49.29
13124;BME280;6627;50.920;12.050;2023-03-13T04:50:35;97731.47;;;17.31;48.90
13124;BME280;6627;50.920;12.050;2023-03-13T04:53:02;97735.03;;;17.35;48.86
13124;BME280;6627;50.920;12.050;2023-03-13T04:55:29;97636.91;;;16.54;49.72
13124;BME280;6627;50.920;12.050;2023-03-13T04:57:58;97689.09;;;16.92;50.06
13124;BME280;6627;50.920;12.050;2023-03-13T05:00:25;97638.75;;;16.47;50.49
13124;BME280;6627;50.920;12.050;2023-03-13T05:02:52;97687.19;;;16.96;49.35
13124;BME280;6627;50.920;12.050;2023-03-13T05:05:22;97786.81;;;17.74;48.86
13124;BME280;6627;50.920;12.050;2023-03-13T05:07:49;97679.06;;;16.76;49.86
13124;BME280;6627;50.920;12.050;2023-03-13T05:10:16;97651.81;;;16.57;50.04
13124;BME280;6627;50.920;12.050;2023-03-13T05:12:43;97636.44;;;16.49;50.23
13124;BME280;6627;50.920;12.050;2023-03-13T05:15:12;97627.72;;;16.39;50.63
13124;BME280;6627;50.920;12.050;2023-03-13T05:17:39;97637.44;;;16.63;50.27
13124;BME280;6627;50.920;12.050;2023-03-13T05:20:08;97676.28;;;16.99;49.41
13124;BME280;6627;50.920;12.050;2023-03-13T05:22:36;97678.44;;;16.86;50.18
13124;BME280;6627;50.920;12.050;2023-03-13T05:25:04;97697.38;;;16.99;50.25
13124;BME280;6627;50.920;12.050;2023-03-13T05:27:32;97732.31;;;17.35;49.47
13124;BME280;6627;50.920;12.050;2023-03-13T05:29:59;97700.94;;;17.29;49.07
13124;BME280;6627;50.920;12.050;2023-03-13T05:32:27;97652.56;;;16.80;49.63
13124;BME280;6627;50.920;12.050;2023-03-13T05:34:55;97698.34;;;17.10;49.53
13124;BME280;6627;50.920;12.050;2023-03-13T05:37:23;97707.34;;;17.40;48.94
13124;BME280;6627;50.920;12.050;2023-03-13T05:39:50;97726.84;;;17.39;49.46
13124;BME280;6627;50.920;12.050;2023-03-13T05:42:17;97705.44;;;17.14;50.28
13124;BME280;6627;50.920;12.050;2023-03-13T05:44:44;97670.66;;;16.88;50.36
13124;BME280;6627;50.920;12.050;2023-03-13T05:47:11;97658.88;;;16.84;50.99
13124;BME280;6627;50.920;12.050;2023-03-13T05:49:40;97644.47;;;16.87;50.26
13124;BME280;6627;50.920;12.050;2023-03-13T05:52:07;97713.75;;;17.52;50.52
13124;BME280;6627;50.920;12.050;2023-03-13T05:54:47;97637.66;;;16.74;51.27
13124;BME280;6627;50.920;12.050;2023-03-13T05:57:14;97727.06;;;17.53;50.92
13124;BME280;6627;50.920;12.050;2023-03-13T05:59:41;97662.00;;;16.83;51.83
13124;BME280;6627;50.920;12.050;2023-03-13T06:02:09;97583.41;;;16.27;52.47
13124;BME280;6627;50.920;12.050;2023-03-13T06:04:36;97726.19;;;17.46;51.35
13124;BME280;6627;50.920;12.050;2023-03-13T06:07:05;97689.09;;;17.22;51.53
13124;BME280;6627;50.920;12.050;2023-03-13T06:09:32;97589.31;;;16.06;52.83
13124;BME280;6627;50.920;12.050;2023-03-13T06:11:59;97648.66;;;16.78;52.55
13124;BME280;6627;50.920;12.050;2023-03-13T06:14:27;97678.22;;;16.99;52.51
13124;BME280;6627;50.920;12.050;2023-03-13T06:16:54;97654.88;;;17.05;51.32
13124;BME280;6627;50.920;12.050;2023-03-13T06:19:21;97661.72;;;16.92;51.84
13124;BME280;6627;50.920;12.050;2023-03-13T06:21:50;97588.69;;;16.39;52.05
13124;BME280;6627;50.920;12.050;2023-03-13T06:24:19;97643.59;;;16.80;52.32
13124;BME280;6627;50.920;12.050;2023-03-13T06:26:47;97711.84;;;17.56;51.98
13124;BME280;6627;50.920;12.050;2023-03-13T06:29:16;97635.97;;;16.93;51.89
13124;BME280;6627;50.920;12.050;2023-03-13T06:31:43;97662.53;;;17.22;51.82
13124;BME280;6627;50.920;12.050;2023-03-13T06:34:11;97612.34;;;17.11;50.81
13124;BME280;6627;50.920;12.050;2023-03-13T06:36:39;97633.16;;;16.89;52.11
13124;BME280;6627;50.920;12.050;2023-03-13T06:39:06;97649.38;;;17.35;51.30
13124;BME280;6627;50.920;12.050;2023-03-13T06:41:35;97662.78;;;17.40;51.61
13124;BME280;6627;50.920;12.050;2023-03-13T06:44:02;97693.78;;;17.81;50.91
13124;BME280;6627;50.920;12.050;2023-03-13T06:46:30;97703.94;;;18.18;49.65
13124;BME280;6627;50.920;12.050;2023-03-13T06:48:57;97642.69;;;17.62;51.12
13124;BME280;6627;50.920;12.050;2023-03-13T06:51:25;97644.19;;;17.56;50.67
13124;BME280;6627;50.920;12.050;2023-03-13T06:53:52;97618.94;;;17.36;51.23
13124;BME280;6627;50.920;12.050;2023-03-13T06:56:20;97579.63;;;17.18;51.06
13124;BME280;6627;50.920;12.050;2023-03-13T06:58:49;97615.28;;;17.59;50.91
13124;BME280;6627;50.920;12.050;2023-03-13T07:01:16;97612.28;;;17.71;50.26
13124;BME280;6627;50.920;12.050;2023-03-13T07:03:45;97640.59;;;17.82;50.41
13124;BME280;6627;50.920;12.050;2023-03-13T07:06:13;97628.63;;;17.64;51.07
13124;BME280;6627;50.920;12.050;2023-03-13T07:08:41;97686.97;;;18.02;50.86
13124;BME280;6627;50.920;12.050;2023-03-13T07:11:11;97667.56;;;17.80;51.52
13124;BME280;6627;50.920;12.050;2023-03-13T07:13:38;97659.81;;;17.56;52.44
13124;BME280;6627;50.920;12.050;2023-03-13T07:16:09;97634.75;;;17.20;52.48
13124;BME280;6627;50.920;12.050;2023-03-13T07:18:37;97678.56;;;17.54;52.24
13124;BME280;6627;50.920;12.050;2023-03-13T07:21:08;97664.28;;;17.37;52.52
13124;BME280;6627;50.920;12.050;2023-03-13T07:23:36;97674.53;;;17.44;51.97
13124;BME280;6627;50.920;12.050;2023-03-13T07:26:06;97714.28;;;17.95;51.36
13124;BME280;6627;50.920;12.050;2023-03-13T07:28:33;97837.03;;;19.34;50.10
13124;BME280;6627;50.920;12.050;2023-03-13T07:31:05;97732.66;;;18.31;50.56
13124;BME280;6627;50.920;12.050;2023-03-13T07:33:34;97727.78;;;18.14;51.16
13124;BME280;6627;50.920;12.050;2023-03-13T07:36:01;97687.63;;;17.92;51.28
13124;BME280;6627;50.920;12.050;2023-03-13T07:38:28;97739.38;;;18.34;50.74
13124;BME280;6627;50.920;12.050;2023-03-13T07:40:57;97687.78;;;17.72;51.92
13124;BME280;6627;50.920;12.050;2023-03-13T07:43:25;97715.34;;;18.20;51.66
13124;BME280;6627;50.920;12.050;2023-03-13T07:45:55;97721.91;;;18.12;52.46
13124;BME280;6627;50.920;12.050;2023-03-13T07:48:24;97627.78;;;17.60;51.91
13124;BME280;6627;50.920;12.050;2023-03-13T07:50:53;97683.88;;;18.07;51.52
13124;BME280;6627;50.920;12.050;2023-03-13T07:53:21;97741.50;;;18.55;51.39
13124;BME280;6627;50.920;12.050;2023-03-13T07:55:57;97781.13;;;19.02;50.75
13124;BME280;6627;50.920;12.050;2023-03-13T07:58:27;97766.22;;;18.99;50.23
13124;BME280;6627;50.920;12.050;2023-03-13T08:00:55;97722.66;;;18.46;50.74
13124;BME280;6627;50.920;12.050;2023-03-13T08:03:23;97821.41;;;19.42;49.97
13124;BME280;6627;50.920;12.050;2023-03-13T08:06:01;97819.97;;;19.59;49.79
13124;BME280;6627;50.920;12.050;2023-03-13T08:08:29;97793.91;;;19.31;50.12
13124;BME280;6627;50.920;12.050;2023-03-13T08:11:00;97758.78;;;19.00;50.78
13124;BME280;6627;50.920;12.050;2023-03-13T08:13:28;97730.09;;;18.94;49.86
13124;BME280;6627;50.920;12.050;2023-03-13T08:16:04;97714.06;;;18.55;50.90
13124;BME280;6627;50.920;12.050;2023-03-13T08:18:34;97780.47;;;19.19;50.74
13124;BME280;6627;50.920;12.050;2023-03-13T08:21:05;97742.69;;;19.02;50.70
13124;BME280;6627;50.920;12.050;2023-03-13T08:23:32;97789.41;;;19.64;49.60
13124;BME280;6627;50.920;12.050;2023-03-13T08:26:05;97720.69;;;18.91;50.56
13124;BME280;6627;50.920;12.050;2023-03-13T08:28:35;97741.03;;;18.90;51.03
13124;BME280;6627;50.920;12.050;2023-03-13T08:31:09;97813.06;;;19.86;49.94
13124;BME280;6627;50.920;12.050;2023-03-13T08:33:38;97754.66;;;19.34;49.84
13124;BME280;6627;50.920;12.050;2023-03-13T08:36:14;97835.31;;;20.47;48.21
13124;BME280;6627;50.920;12.050;2023-03-13T08:38:45;97755.78;;;19.88;48.92
13124;BME280;6627;50.920;12.050;2023-03-13T08:41:14;97779.00;;;20.02;49.17
13124;BME280;6627;50.920;12.050;2023-03-13T08:43:42;97706.81;;;19.32;49.65
13124;BME280;6627;50.920;12.050;2023-03-13T08:46:10;97736.69;;;19.48;50.04
13124;BME280;6627;50.920;12.050;2023-03-13T08:48:37;97722.56;;;19.42;49.82
13124;BME280;6627;50.920;12.050;2023-03-13T08:51:06;97785.31;;;20.13;49.34
13124;BME280;6627;50.920;12.050;2023-03-13T08:53:37;97656.31;;;18.81;50.63
13124;BME280;6627;50.920;12.050;2023-03-13T08:56:05;97676.03;;;18.98;50.91
13124;BME280;6627;50.920;12.050;2023-03-13T08:58:33;97728.84;;;19.42;50.79
13124;BME280;6627;50.920;12.050;2023-03-13T09:01:01;97739.13;;;19.53;50.44
13124;BME280;6627;50.920;12.050;2023-03-13T09:03:30;97741.63;;;19.79;49.63
13124;BME280;6627;50.920;12.050;2023-03-13T09:06:13;97780.59;;;20.13;49.49
13124;BME280;6627;50.920;12.050;2023-03-13T09:08:41;97852.31;;;20.78;49.23
13124;BME280;6627;50.920;12.050;2023-03-13T09:11:11;97858.28;;;21.12;47.73
13124;BME280;6627;50.920;12.050;2023-03-13T09:13:40;97867.31;;;21.30;47.87
13124;BME280;6627;50.920;12.050;2023-03-13T09:16:10;97857.53;;;21.47;46.62
13124;BME280;6627;50.920;12.050;2023-03-13T09:18:39;97824.41;;;21.11;47.50
13124;BME280;6627;50.920;12.050;2023-03-13T09:21:10;97747.34;;;20.94;46.71
13124;BME280;6627;50.920;12.050;2023-03-13T09:23:39;97719.03;;;20.61;47.60
13124;BME280;6627;50.920;12.050;2023-03-13T09:26:06;97729.25;;;20.71;47.36
13124;BME280;6627;50.920;12.050;2023-03-13T09:28:34;97794.16;;;21.26;47.59
13124;BME280;6627;50.920;12.050;2023-03-13T09:31:11;97803.19;;;21.40;47.29
13124;BME280;6627;50.920;12.050;2023-03-13T09:33:39;97722.97;;;20.53;48.07
13124;BME280;6627;50.920;12.050;2023-03-13T09:36:09;97806.34;;;21.42;47.02
13124;BME280;6627;50.920;12.050;2023-03-13T09:38:38;97767.00;;;20.88;47.98
13124;BME280;6627;50.920;12.050;2023-03-13T09:41:22;97833.47;;;21.55;47.20
13124;BME280;6627;50.920;12.050;2023-03-13T09:43:55;97745.78;;;20.78;47.49
13124;BME280;6627;50.920;12.050;2023-03-13T09:46:31;97796.91;;;21.01;48.07
13124;BME280;6627;50.920;12.050;2023-03-13T09:49:03;97852.72;;;21.80;46.80
13124;BME280;6627;50.920;12.050;2023-03-13T09:51:35;97826.03;;;21.41;47.18
13124;BME280;6627;50.920;12.050;2023-03-13T09:54:11;97752.47;;;20.74;47.70
13124;BME280;6627;50.920;12.050;2023-03-13T09:56:45;97811.84;;;21.14;47.89
13124;BME280;6627;50.920;12.050;2023-03-13T09:59:18;97849.59;;;21.60;47.10
13124;BME280;6627;50.920;12.050;2023-03-13T10:01:49;97780.38;;;20.79;47.76
13124;BME280;6627;50.920;12.050;2023-03-13T10:04:31;97830.75;;;21.37;47.27
13124;BME280;6627;50.920;12.050;2023-03-13T10:07:02;97844.50;;;21.37;47.29
13124;BME280;6627;50.920;12.050;2023-03-13T10:09:32;97844.88;;;21.71;46.90
13124;BME280;6627;50.920;12.050;2023-03-13T10:12:12;97863.31;;;21.96;46.34
13124;BME280;6627;50.920;12.050;2023-03-13T10:14:52;97827.56;;;21.74;46.16
13124;BME280;6627;50.920;12.050;2023-03-13T10:17:30;97852.69;;;21.98;46.14
13124;BME280;6627;50.920;12.050;2023-03-13T10:20:11;97855.81;;;22.14;45.72
13124;BME280;6627;50.920;12.050;2023-03-13T10:22:42;97834.47;;;22.32;44.88
13124;BME280;6627;50.920;12.050;2023-03-13T10:25:26;97743.75;;;21.50;46.25
13124;BME280;6627;50.920;12.050;2023-03-13T10:27:55;97730.03;;;21.14;46.58
13124;BME280;6627;50.920;12.050;2023-03-13T10:30:28;97782.22;;;21.89;45.92
13124;BME280;6627;50.920;12.050;2023-03-13T10:33:00;97748.09;;;21.19;47.36
13124;BME280;6627;50.920;12.050;2023-03-13T10:35:43;97759.50;;;21.25;47.43
13124;BME280;6627;50.920;12.050;2023-03-13T10:38:14;97852.25;;;22.21;46.18
13124;BME280;6627;50.920;12.050;2023-03-13T10:40:56;97787.41;;;21.66;46.67
13124;BME280;6627;50.920;12.050;2023-03-13T10:43:26;97784.19;;;21.89;45.75
13124;BME280;6627;50.920;12.050;2023-03-13T10:45:54;97828.19;;;22.28;45.30
13124;BME280;6627;50.920;12.050;2023-03-13T10:48:24;97751.22;;;21.57;46.86
13124;BME280;6627;50.920;12.050;2023-03-13T10:50:54;97773.94;;;21.86;46.13
13124;BME280;6627;50.920;12.050;2023-03-13T10:53:31;97780.22;;;21.97;46.31
13124;BME280;6627;50.920;12.050;2023-03-13T10:56:09;97777.94;;;21.74;46.45
13124;BME280;6627;50.920;12.050;2023-03-13T10:58:42;97759.00;;;21.83;46.06
13124;BME280;6627;50.920;12.050;2023-03-13T11:01:19;97769.97;;;21.98;46.06
13124;BME280;6627;50.920;12.050;2023-03-13T11:03:51;97734.19;;;21.83;45.55
13124;BME280;6627;50.920;12.050;2023-03-13T11:06:28;97789.28;;;21.94;47.11
13124;BME280;6627;50.920;12.050;2023-03-13T11:09:16;97827.31;;;22.49;45.98
13124;BME280;6627;50.920;12.050;2023-03-13T11:11:48;97819.19;;;22.80;44.40
13124;BME280;6627;50.920;12.050;2023-03-13T11:14:18;97678.72;;;21.74;45.36
13124;BME280;6627;50.920;12.050;2023-03-13T11:16:48;97734.41;;;22.28;44.60
13124;BME280;6627;50.920;12.050;2023-03-13T11:19:31;97866.19;;;23.35;44.61
13124;BME280;6627;50.920;12.050;2023-03-13T11:22:19;97770.91;;;22.50;45.46
13124;BME280;6627;50.920;12.050;2023-03-13T11:24:56;97791.56;;;22.90;45.21
13124;BME280;6627;50.920;12.050;2023-03-13T11:27:35;97769.56;;;22.76;45.52
13124;BME280;6627;50.920;12.050;2023-03-13T11:30:18;97795.44;;;22.97;45.24
13124;BME280;6627;50.920;12.050;2023-03-13T11:32:53;97665.66;;;21.85;46.10
13124;BME280;6627;50.920;12.050;2023-03-13T11:35:34;97677.81;;;21.95;46.63
13124;BME280;6627;50.920;12.050;2023-03-13T11:38:07;97856.38;;;23.27;45.24
13124;BME280;6627;50.920;12.050;2023-03-13T11:40:46;97653.31;;;22.15;46.15
13124;BME280;6627;50.920;12.050;2023-03-13T11:43:31;97762.06;;;22.77;45.47
13124;BME280;6627;50.920;12.050;2023-03-13T11:46:14;97737.66;;;22.68;45.63
13124;BME280;6627;50.920;12.050;2023-03-13T11:49:09;97698.81;;;22.45;46.06
13124;BME280;6627;50.920;12.050;2023-03-13T11:51:52;97702.41;;;22.34;46.18
13124;BME280;6627;50.920;12.050;2023-03-13T11:54:50;97758.38;;;22.98;44.97
13124;BME280;6627;50.920;12.050;2023-03-13T11:57:26;97760.53;;;23.21;44.88
13124;BME280;6627;50.920;12.050;2023-03-13T12:00:13;97724.78;;;23.03;44.67
13124;BME280;6627;50.920;12.050;2023-03-13T12:02:47;97715.75;;;22.99;44.47
13124;BME280;6627;50.920;12.050;2023-03-13T12:05:19;97793.25;;;23.67;43.69
13124;BME280;6627;50.920;12.050;2023-03-13T12:07:52;97769.56;;;23.62;43.68
13124;BME280;6627;50.920;12.050;2023-03-13T12:10:25;97691.44;;;22.79;44.83
13124;BME280;6627;50.920;12.050;2023-03-13T12:13:00;97659.25;;;22.62;44.64
13124;BME280;6627;50.920;12.050;2023-03-13T12:15:35;97690.91;;;22.99;44.72
13124;BME280;6627;50.920;12.050;2023-03-13T12:18:08;97928.88;;;24.97;42.99
13124;BME280;6627;50.920;12.050;2023-03-13T12:20:50;97785.03;;;24.28;42.85
13124;BME280;6627;50.920;12.050;2023-03-13T12:23:26;97732.19;;;23.88;43.35
13124;BME280;6627;50.920;12.050;2023-03-13T12:26:02;97720.84;;;23.79;43.56
13124;BME280;6627;50.920;12.050;2023-03-13T12:28:36;97664.25;;;23.19;44.40
13124;BME280;6627;50.920;12.050;2023-03-13T12:31:20;97666.94;;;23.26;43.93
13124;BME280;6627;50.920;12.050;2023-03-13T12:33:57;97665.84;;;23.20;44.36
13124;BME280;6627;50.920;12.050;2023-03-13T12:36:32;97706.28;;;23.75;43.79
13124;BME280;6627;50.920;12.050;2023-03-13T12:39:18;97683.88;;;23.62;43.74
13124;BME280;6627;50.920;12.050;2023-03-13T12:41:55;97691.91;;;23.53;44.11
13124;BME280;6627;50.920;12.050;2023-03-13T12:44:25;97720.84;;;23.79;43.70
13124;BME280;6627;50.920;12.050;2023-03-13T12:47:07;97647.81;;;23.42;43.67
13124;BME280;6627;50.920;12.050;2023-03-13T12:50:10;97707.97;;;23.62;44.59
13124;BME280;6627;50.920;12.050;2023-03-13T12:53:04;97643.03;;;23.47;43.84
13124;BME280;6627;50.920;12.050;2023-03-13T12:58:48;97600.22;;;22.94;44.73
13124;BME280;6627;50.920;12.050;2023-03-13T13:01:30;97719.44;;;23.95;44.04
13124;BME280;6627;50.920;12.050;2023-03-13T13:04:05;97684.16;;;23.75;44.21
13124;BME280;6627;50.920;12.050;2023-03-13T13:06:56;97673.09;;;23.75;43.58
13124;BME280;6627;50.920;12.050;2023-03-13T13:09:30;97794.13;;;25.10;41.52
13124;BME280;6627;50.920;12.050;2023-03-13T13:12:01;97657.97;;;23.83;43.24
13124;BME280;6627;50.920;12.050;2023-03-13T13:15:10;97625.25;;;23.48;44.47
13124;BME280;6627;50.920;12.050;2023-03-13T13:18:13;97606.63;;;23.21;44.32
13124;BME280;6627;50.920;12.050;2023-03-13T13:20:46;97641.72;;;23.55;44.31
13124;BME280;6627;50.920;12.050;2023-03-13T13:23:34;97636.63;;;23.53;44.38
13124;BME280;6627;50.920;12.050;2023-03-13T13:26:47;97557.91;;;23.04;44.42